createdAt,value
2023-02-11T00:00:57.686Z,-4.16
2023-02-11T00:04:01.804Z,-4.15
2023-02-11T00:07:04.304Z,-4.19
2023-02-11T00:10:10.393Z,-4.20
2023-02-11T00:13:12.896Z,-4.21
2023-02-11T00:16:18.759Z,-4.25
2023-02-11T00:19:21.727Z,-4.29
2023-02-11T00:22:24.400Z,-4.27
2023-02-11T00:25:26.998Z,-4.31
2023-02-11T00:28:29.804Z,-4.30
2023-02-11T00:31:33.001Z,-4.31
2023-02-11T00:34:36.813Z,-4.31
2023-02-11T00:37:39.423Z,-4.32
2023-02-11T00:40:42.039Z,-4.30
2023-02-11T00:43:44.730Z,-4.19
2023-02-11T00:46:47.368Z,-4.14
2023-02-11T00:49:49.868Z,-4.15
2023-02-11T00:52:52.406Z,-4.14
2023-02-11T00:55:54.957Z,-4.19
2023-02-11T00:58:57.766Z,-4.20
2023-02-11T01:02:00.880Z,-4.18
2023-02-11T01:05:04.360Z,-4.17
2023-02-11T01:08:08.565Z,-4.25
2023-02-11T01:11:17.287Z,-4.27
2023-02-11T01:14:20.861Z,-4.30
2023-02-11T01:17:25.748Z,-4.27
2023-02-11T01:20:29.699Z,-4.15
2023-02-11T01:23:32.580Z,-4.07
2023-02-11T01:26:35.152Z,-4.12
2023-02-11T01:29:37.745Z,-4.13
2023-02-11T01:32:40.670Z,-4.19
2023-02-11T01:35:44.930Z,-4.09
2023-02-11T01:38:47.530Z,-4.17
2023-02-11T01:41:50.046Z,-4.21
2023-02-11T01:44:54.714Z,-4.24
2023-02-11T01:47:57.351Z,-4.28
2023-02-11T01:51:32.963Z,-4.30
2023-02-11T01:54:59.871Z,-4.32
2023-02-11T01:58:05.254Z,-4.30
2023-02-11T02:01:08.899Z,-4.46
2023-02-11T02:04:12.588Z,-4.48
2023-02-11T02:07:25.074Z,-4.57
2023-02-11T02:10:28.991Z,-4.54
2023-02-11T02:13:33.578Z,-4.73
2023-02-11T02:16:37.833Z,-4.77
2023-02-11T02:20:03.939Z,-4.83
2023-02-11T02:23:18.550Z,-4.79
2023-02-11T02:26:52.426Z,-4.78
2023-02-11T02:29:54.834Z,-4.80
2023-02-11T02:33:21.844Z,-4.79
2023-02-11T02:36:38.304Z,-4.85
2023-02-11T02:39:41.086Z,-4.87
2023-02-11T02:42:44.472Z,-4.98
2023-02-11T02:45:46.980Z,-5.06
2023-02-11T02:48:52.797Z,-4.93
2023-02-11T02:52:28.540Z,-4.94
2023-02-11T02:55:45.341Z,-4.98
2023-02-11T02:59:25.417Z,-4.99
2023-02-11T03:02:43.949Z,-5.10
2023-02-11T03:05:55.067Z,-5.21
2023-02-11T03:09:06.392Z,-5.26
2023-02-11T03:12:10.662Z,-5.25
2023-02-11T03:15:15.247Z,-5.27
2023-02-11T03:18:20.893Z,-5.25
2023-02-11T03:21:25.240Z,-5.31
2023-02-11T03:24:31.920Z,-5.32
2023-02-11T03:27:49.367Z,-5.32
2023-02-11T03:31:10.742Z,-5.31
2023-02-11T03:34:21.598Z,-5.30
2023-02-11T03:37:37.688Z,-5.30
2023-02-11T03:40:43.676Z,-5.28
2023-02-11T03:43:52.963Z,-5.42
2023-02-11T03:46:56.035Z,-5.44
2023-02-11T03:50:00.772Z,-5.45
2023-02-11T03:53:04.860Z,-5.48
2023-02-11T03:56:13.142Z,-5.49
2023-02-11T03:59:15.703Z,-5.49
2023-02-11T04:02:19.000Z,-5.48
2023-02-11T04:05:21.470Z,-5.54
2023-02-11T04:08:24.191Z,-5.58
2023-02-11T04:11:26.652Z,-5.61
2023-02-11T04:14:29.059Z,-5.58
2023-02-11T04:17:31.560Z,-5.59
2023-02-11T04:20:34.067Z,-5.64
2023-02-11T04:23:36.942Z,-5.57
2023-02-11T04:26:39.402Z,-5.63
2023-02-11T04:29:42.231Z,-5.70
2023-02-11T04:32:44.799Z,-5.70
2023-02-11T04:35:47.342Z,-5.70
2023-02-11T04:38:49.773Z,-5.70
2023-02-11T04:41:52.218Z,-5.69
2023-02-11T04:44:54.697Z,-5.69
2023-02-11T04:47:57.203Z,-5.68
2023-02-11T04:50:59.842Z,-5.72
2023-02-11T04:54:02.342Z,-5.71
2023-02-11T04:57:05.409Z,-5.73
2023-02-11T05:00:10.040Z,-5.74
2023-02-11T05:03:13.134Z,-5.70
2023-02-11T05:06:16.165Z,-5.65
2023-02-11T05:09:18.658Z,-5.73
2023-02-11T05:12:21.885Z,-5.78
2023-02-11T05:15:24.565Z,-5.76
2023-02-11T05:18:27.061Z,-5.76
2023-02-11T05:21:29.542Z,-5.82
2023-02-11T05:24:32.652Z,-5.90
2023-02-11T05:27:35.348Z,-5.98
2023-02-11T05:30:38.040Z,-6.00
2023-02-11T05:33:41.320Z,-6.00
2023-02-11T05:36:43.851Z,-5.97
2023-02-11T05:39:46.401Z,-5.93
2023-02-11T05:42:49.001Z,-5.94
2023-02-11T05:45:52.406Z,-5.87
2023-02-11T05:48:56.679Z,-5.85
2023-02-11T05:51:59.148Z,-5.85
2023-02-11T05:55:01.614Z,-5.76
2023-02-11T05:58:04.563Z,-5.76
2023-02-11T06:01:07.161Z,-5.70
2023-02-11T06:04:09.801Z,-5.63
2023-02-11T06:07:12.303Z,-5.63
2023-02-11T06:10:14.847Z,-5.63
2023-02-11T06:13:18.722Z,-5.61
2023-02-11T06:16:21.339Z,-5.54
2023-02-11T06:19:24.285Z,-5.53
2023-02-11T06:22:27.540Z,-5.48
2023-02-11T06:25:30.024Z,-5.39
2023-02-11T06:28:33.361Z,-5.32
2023-02-11T06:31:37.990Z,-5.18
2023-02-11T06:34:40.708Z,-5.19
2023-02-11T06:37:43.228Z,-5.10
2023-02-11T06:40:49.717Z,-4.92
2023-02-11T06:43:53.214Z,-4.77
2023-02-11T06:46:55.784Z,-4.54
2023-02-11T06:49:58.292Z,-4.44
2023-02-11T06:53:01.012Z,-4.39
2023-02-11T06:56:08.646Z,-4.28
2023-02-11T06:59:16.344Z,-4.16
2023-02-11T07:02:20.992Z,-4.00
2023-02-11T07:05:23.891Z,-3.88
2023-02-11T07:08:27.003Z,-3.74
2023-02-11T07:11:30.107Z,-3.58
2023-02-11T07:14:33.463Z,-3.23
2023-02-11T07:17:36.486Z,-2.95
2023-02-11T07:20:39.015Z,-2.75
2023-02-11T07:23:41.914Z,-2.46
2023-02-11T07:26:44.911Z,-2.15
2023-02-11T07:29:48.689Z,-1.96
2023-02-11T07:32:51.298Z,-1.82
2023-02-11T07:35:53.886Z,-1.72
2023-02-11T07:38:56.567Z,-1.57
2023-02-11T07:42:00.171Z,-1.41
2023-02-11T07:45:03.468Z,-1.26
2023-02-11T07:48:06.233Z,-1.11
2023-02-11T07:51:14.348Z,-0.88
2023-02-11T07:54:17.426Z,-0.80
2023-02-11T07:57:19.966Z,-0.62
2023-02-11T08:00:22.545Z,-0.51
2023-02-11T08:03:25.053Z,-0.40
2023-02-11T08:06:34.866Z,-0.37
2023-02-11T08:09:37.564Z,-0.39
2023-02-11T08:12:41.856Z,-0.33
2023-02-11T08:15:44.320Z,-0.46
2023-02-11T08:18:47.898Z,-0.54
2023-02-11T08:21:50.624Z,-0.43
2023-02-11T08:24:53.051Z,-0.42
2023-02-11T08:27:55.525Z,-0.35
2023-02-11T08:30:58.058Z,-0.32
2023-02-11T08:34:02.361Z,-0.16
2023-02-11T08:37:09.042Z,0.05
2023-02-11T08:40:11.774Z,0.14
2023-02-11T08:43:14.462Z,0.25
2023-02-11T08:46:19.151Z,0.29
2023-02-11T08:49:22.872Z,0.39
2023-02-11T08:52:25.552Z,0.61
2023-02-11T08:55:28.085Z,0.84
2023-02-11T08:58:30.914Z,1.01
2023-02-11T09:01:33.968Z,1.17
2023-02-11T09:04:36.554Z,1.34
2023-02-11T09:07:39.760Z,1.42
2023-02-11T09:10:42.856Z,1.67
2023-02-11T09:13:46.570Z,2.00
2023-02-11T09:16:49.974Z,2.09
2023-02-11T09:19:52.616Z,2.27
2023-02-11T09:22:57.654Z,2.35
2023-02-11T09:26:12.447Z,2.45
2023-02-11T09:29:15.158Z,2.52
2023-02-11T09:32:18.453Z,2.72
2023-02-11T09:35:20.999Z,2.94
2023-02-11T09:38:23.721Z,3.11
2023-02-11T09:41:46.414Z,3.38
2023-02-11T09:44:49.159Z,3.42
2023-02-11T09:47:56.453Z,3.49
2023-02-11T09:51:03.361Z,3.50
2023-02-11T09:54:15.447Z,3.38
2023-02-11T09:57:28.193Z,3.54
2023-02-11T10:00:40.232Z,3.55
2023-02-11T10:03:49.590Z,3.60
2023-02-11T10:07:02.250Z,3.64
2023-02-11T10:10:10.641Z,3.64
2023-02-11T10:13:22.455Z,3.58
2023-02-11T10:16:43.204Z,3.69
2023-02-11T10:20:19.650Z,3.86
2023-02-11T10:23:34.063Z,3.91
2023-02-11T10:26:39.704Z,3.87
2023-02-11T10:29:52.563Z,3.88
2023-02-11T10:33:03.237Z,3.86
2023-02-11T10:36:06.281Z,3.96
2023-02-11T10:39:16.438Z,4.04
2023-02-11T10:42:19.020Z,4.23
2023-02-11T10:45:33.322Z,4.43
2023-02-11T10:48:49.535Z,4.47
2023-02-11T10:52:13.720Z,4.46
2023-02-11T10:55:22.180Z,4.44
2023-02-11T10:58:28.676Z,4.47
2023-02-11T11:01:50.186Z,4.45
2023-02-11T11:04:57.678Z,4.40
2023-02-11T11:08:04.179Z,4.36
2023-02-11T11:11:09.956Z,4.37
2023-02-11T11:14:19.586Z,4.55
2023-02-11T11:17:22.246Z,4.89
2023-02-11T11:20:30.514Z,5.24
2023-02-11T11:23:36.753Z,5.69
2023-02-11T11:26:46.374Z,6.05
2023-02-11T11:29:51.970Z,6.30
2023-02-11T11:32:55.122Z,6.36
2023-02-11T11:36:06.656Z,6.34
2023-02-11T11:39:35.106Z,6.13
2023-02-11T11:42:39.395Z,6.21
2023-02-11T11:45:56.803Z,6.11
2023-02-11T11:49:13.240Z,6.13
2023-02-11T11:52:40.395Z,6.23
2023-02-11T11:55:53.617Z,6.24
2023-02-11T11:58:56.904Z,6.24
2023-02-11T12:02:23.404Z,6.15
2023-02-11T12:05:33.978Z,6.24
2023-02-11T12:08:51.435Z,6.30
2023-02-11T12:12:01.556Z,6.30
2023-02-11T12:15:22.504Z,6.23
2023-02-11T12:18:47.613Z,6.15
2023-02-11T12:22:24.134Z,6.18
2023-02-11T12:25:45.563Z,6.30
2023-02-11T12:29:02.878Z,6.49
2023-02-11T12:32:15.746Z,6.51
2023-02-11T12:35:31.141Z,6.62
2023-02-11T12:39:02.179Z,6.39
2023-02-11T12:42:57.136Z,6.52
2023-02-11T12:46:27.144Z,6.85
2023-02-11T12:50:01.957Z,7.25
2023-02-11T12:53:41.842Z,7.66
2023-02-11T12:56:44.257Z,7.46
2023-02-11T13:00:07.032Z,7.56
2023-02-11T13:03:19.176Z,7.77
2023-02-11T13:07:05.568Z,7.95
2023-02-11T13:10:14.253Z,8.61
2023-02-11T13:13:26.257Z,8.51
2023-02-11T13:16:47.969Z,8.57
2023-02-11T13:20:01.500Z,8.11
2023-02-11T13:23:13.123Z,7.72
2023-02-11T13:26:39.499Z,7.40
2023-02-11T13:30:11.393Z,7.24
2023-02-11T13:33:17.507Z,7.26
2023-02-11T13:36:26.818Z,7.29
2023-02-11T13:39:29.406Z,7.20
2023-02-11T13:42:46.725Z,7.08
2023-02-11T13:45:51.614Z,7.02
2023-02-11T13:48:55.328Z,7.00
2023-02-11T13:52:00.204Z,7.00
2023-02-11T13:55:14.726Z,7.13
2023-02-11T13:58:32.993Z,7.19
2023-02-11T14:01:40.359Z,7.17
2023-02-11T14:05:37.780Z,7.97
2023-02-11T14:09:07.576Z,8.57
2023-02-11T14:12:23.871Z,8.74
2023-02-11T14:15:27.728Z,9.36
2023-02-11T14:18:45.190Z,9.42
2023-02-11T14:21:47.754Z,9.59
2023-02-11T14:24:52.345Z,9.44
2023-02-11T14:28:01.589Z,8.97
2023-02-11T14:31:11.457Z,8.87
2023-02-11T14:34:51.173Z,8.93
2023-02-11T14:37:59.509Z,8.44
2023-02-11T14:41:19.860Z,8.19
2023-02-11T14:44:26.906Z,8.10
2023-02-11T14:47:38.453Z,8.03
2023-02-11T14:50:46.161Z,8.41
2023-02-11T14:53:55.652Z,8.48
2023-02-11T14:57:16.039Z,8.70
2023-02-11T15:00:23.600Z,8.57
2023-02-11T15:03:37.096Z,8.60
2023-02-11T15:06:42.731Z,8.02
2023-02-11T15:09:49.981Z,7.55
2023-02-11T15:12:53.570Z,7.29
2023-02-11T15:16:06.595Z,7.30
2023-02-11T15:19:21.312Z,7.03
2023-02-11T15:22:29.377Z,7.09
2023-02-11T15:25:34.330Z,6.92
2023-02-11T15:28:37.583Z,6.78
2023-02-11T15:31:40.314Z,6.65
2023-02-11T15:34:44.887Z,6.58
2023-02-11T15:37:50.320Z,6.46
2023-02-11T15:41:00.798Z,6.38
2023-02-11T15:44:03.821Z,6.30
2023-02-11T15:47:10.915Z,6.25
2023-02-11T15:50:26.090Z,6.15
2023-02-11T15:53:33.593Z,6.12
2023-02-11T15:56:43.101Z,6.06
2023-02-11T15:59:49.960Z,6.01
2023-02-11T16:02:53.466Z,5.88
2023-02-11T16:05:56.626Z,5.80
2023-02-11T16:09:03.985Z,5.75
2023-02-11T16:12:23.544Z,5.68
2023-02-11T16:15:52.498Z,5.60
2023-02-11T16:19:04.801Z,5.56
2023-02-11T16:22:11.857Z,5.45
2023-02-11T16:25:19.669Z,5.37
2023-02-11T16:28:22.602Z,5.43
2023-02-11T16:31:33.565Z,5.37
2023-02-11T16:34:36.825Z,5.30
2023-02-11T16:37:39.322Z,5.26
2023-02-11T16:40:44.442Z,5.12
2023-02-11T16:43:49.216Z,5.05
2023-02-11T16:46:53.683Z,4.93
2023-02-11T16:49:57.577Z,5.03
2023-02-11T16:53:02.164Z,5.03
2023-02-11T16:56:05.124Z,5.00
2023-02-11T16:59:09.236Z,5.05
2023-02-11T17:02:25.321Z,5.00
2023-02-11T17:05:27.932Z,5.04
2023-02-11T17:08:30.672Z,5.14
2023-02-11T17:11:33.451Z,5.14
2023-02-11T17:14:35.924Z,5.20
2023-02-11T17:17:38.615Z,5.36
2023-02-11T17:20:41.835Z,5.34
2023-02-11T17:23:46.114Z,5.34
2023-02-11T17:26:50.393Z,5.40
2023-02-11T17:29:53.423Z,5.50
2023-02-11T17:32:56.231Z,5.49
2023-02-11T17:35:59.045Z,5.51
2023-02-11T17:39:03.058Z,5.52
2023-02-11T17:42:06.501Z,5.48
2023-02-11T17:45:10.005Z,5.46
2023-02-11T17:48:12.500Z,5.40
2023-02-11T17:51:23.166Z,5.51
2023-02-11T17:54:26.110Z,5.56
2023-02-11T17:57:28.888Z,5.58
2023-02-11T18:00:32.150Z,5.62
2023-02-11T18:03:35.014Z,5.60
2023-02-11T18:06:37.878Z,5.59
2023-02-11T18:09:41.542Z,5.64
2023-02-11T18:12:43.949Z,5.61
2023-02-11T18:15:46.709Z,5.53
2023-02-11T18:18:50.161Z,5.50
2023-02-11T18:21:54.048Z,5.46
2023-02-11T18:24:56.793Z,5.43
2023-02-11T18:27:59.646Z,5.50
2023-02-11T18:31:02.858Z,5.53
2023-02-11T18:34:07.894Z,5.46
2023-02-11T18:37:13.355Z,5.47
2023-02-11T18:40:16.164Z,5.47
2023-02-11T18:43:21.778Z,5.44
2023-02-11T18:46:24.627Z,5.47
2023-02-11T18:49:27.424Z,5.50
2023-02-11T18:52:31.558Z,5.51
2023-02-11T18:55:34.137Z,5.56
2023-02-11T18:58:38.062Z,5.54
2023-02-11T19:01:43.360Z,5.49
2023-02-11T19:04:46.893Z,5.48
2023-02-11T19:07:49.659Z,5.43
2023-02-11T19:10:52.515Z,5.51
2023-02-11T19:13:54.979Z,5.44
2023-02-11T19:16:59.711Z,5.33
2023-02-11T19:20:05.982Z,5.35
2023-02-11T19:23:09.577Z,5.48
2023-02-11T19:26:13.377Z,5.45
2023-02-11T19:29:16.824Z,5.65
2023-02-11T19:32:19.982Z,5.51
2023-02-11T19:35:23.332Z,5.50
2023-02-11T19:38:27.144Z,5.50
2023-02-11T19:41:33.590Z,5.61
2023-02-11T19:44:36.485Z,5.51
2023-02-11T19:47:39.280Z,5.53
2023-02-11T19:50:42.092Z,5.60
2023-02-11T19:53:45.957Z,5.59
2023-02-11T19:56:49.034Z,5.58
2023-02-11T19:59:54.845Z,5.60
2023-02-11T20:02:57.894Z,5.55
2023-02-11T20:06:04.495Z,5.55
2023-02-11T20:09:11.851Z,5.58
2023-02-11T20:12:15.715Z,5.56
2023-02-11T20:15:18.348Z,5.59
2023-02-11T20:18:21.600Z,5.58
2023-02-11T20:21:30.541Z,5.55
2023-02-11T20:24:33.347Z,5.53
2023-02-11T20:27:36.283Z,5.57
2023-02-11T20:30:39.576Z,5.55
2023-02-11T20:33:42.144Z,5.47
2023-02-11T20:36:51.697Z,5.41
2023-02-11T20:39:55.840Z,5.37
2023-02-11T20:42:58.708Z,5.45
2023-02-11T20:46:05.707Z,5.32
2023-02-11T20:49:11.943Z,5.31
2023-02-11T20:52:18.010Z,5.27
2023-02-11T20:55:20.763Z,5.25
2023-02-11T20:58:23.324Z,5.28
2023-02-11T21:01:29.892Z,5.34
2023-02-11T21:04:35.657Z,5.39
2023-02-11T21:07:39.239Z,5.40
2023-02-11T21:10:43.857Z,5.38
2023-02-11T21:13:46.952Z,5.48
2023-02-11T21:16:50.468Z,5.52
2023-02-11T21:19:53.283Z,5.55
2023-02-11T21:22:56.061Z,5.46
2023-02-11T21:25:58.762Z,5.50
2023-02-11T21:29:06.049Z,5.45
2023-02-11T21:32:09.280Z,5.48
2023-02-11T21:35:12.098Z,5.40
2023-02-11T21:38:15.565Z,5.46
2023-02-11T21:41:19.927Z,5.46
2023-02-11T21:44:22.527Z,5.38
2023-02-11T21:47:25.224Z,5.29
2023-02-11T21:50:27.951Z,5.21
2023-02-11T21:53:30.716Z,5.19
2023-02-11T21:56:35.118Z,5.06
2023-02-11T21:59:37.635Z,5.12
2023-02-11T22:02:40.436Z,5.02
2023-02-11T22:05:43.210Z,4.96
2023-02-11T22:08:45.724Z,4.99
2023-02-11T22:11:49.339Z,4.99
2023-02-11T22:14:51.895Z,5.02
2023-02-11T22:17:54.307Z,5.06
2023-02-11T22:21:17.581Z,5.04
2023-02-11T22:24:20.138Z,5.00
2023-02-11T22:27:23.086Z,4.85
2023-02-11T22:30:25.728Z,4.88
2023-02-11T22:33:28.876Z,4.86
2023-02-11T22:36:37.986Z,4.78
2023-02-11T22:39:42.070Z,4.79
2023-02-11T22:42:44.802Z,4.83
2023-02-11T22:45:47.447Z,4.76
2023-02-11T22:48:50.540Z,4.75
2023-02-11T22:51:53.705Z,4.71
2023-02-11T22:54:56.326Z,4.72
2023-02-11T22:57:58.858Z,4.65
2023-02-11T23:01:01.789Z,4.64
2023-02-11T23:04:06.416Z,4.63
2023-02-11T23:07:08.834Z,4.61
2023-02-11T23:10:11.465Z,4.69
2023-02-11T23:13:13.916Z,4.78
2023-02-11T23:16:21.151Z,4.88
2023-02-11T23:19:26.539Z,4.83
2023-02-11T23:22:29.032Z,4.80
2023-02-11T23:25:32.701Z,4.80
2023-02-11T23:28:36.292Z,4.79
2023-02-11T23:31:40.886Z,4.71
2023-02-11T23:34:43.436Z,4.64
2023-02-11T23:37:45.896Z,4.69
2023-02-11T23:40:48.383Z,4.67
2023-02-11T23:43:52.924Z,4.58
2023-02-11T23:46:55.380Z,4.59
2023-02-11T23:49:59.616Z,4.54
2023-02-11T23:53:02.212Z,4.50
2023-02-11T23:56:14.974Z,4.55
2023-02-11T23:59:17.823Z,4.51
